Main page
METAR-TAF:

METAR-TAF

Airports :

Kirkwall Airport

Kirkwall, Scotland

latitude: 58-57N, longitude: 002-54W, elevation: 21 m

Current weather observation

The report was made 29 minutes ago, at 17:20 UTC
Wind 21 kt from the South
Temperature 11°C
Humidity 82%
Pressure 1007 hPa
Visibility 10 km or more
Few clouds at a height of 900 ft

METAR: EGPA 151720Z 18021KT 9999 FEW009 11/08 Q1007

Time: 17:49 (17:49 UTC)

Forecast

The report was made 59 minutes ago, at 16:50 UTC
Forecast valid from 15 at 18 UTC to 16 at 03 UTC
Wind 20 kt from the South/Southeast
Visibility 10 km or more
Few clouds at a height of 1500 ft
Becoming
from 15 at 18 UTC to 15 at 21 UTC
Wind 12 kt from the Southwest
Probability 30% :
Temporary
from 15 at 18 UTC to 15 at 21 UTC
Visibility: 8000 m
light rain

TAF: EGPA 151650Z 1518/1603 16020KT 9999 FEW015 BECMG 1518/1521 22012KT PROB30 TEMPO 1518/1521 8000 -RA

Weather observations and forecasts of more than 4000 airports (METAR and TAF reports).

The available stations are represented by yellow and red dots on the map.

Hover mouse over dot to see the name of the station.

Then click to see weather observations and forecasts.

To change the map : click on the green buttons with a black cross to zoom in, on the green button with a dash to zoom out, or on the green arrows for adjacent maps.


METAR-TAF: